Time;durP1;ratioP1;P1;durP2;ratioP2;P2;SDS_P1;SDS_P2;PMS_P1;PMS_P2;Temp;Humidity;BMP_temperature;BMP_pressure;BME280_temperature;BME280_humidity;BME280_pressure;Samples;Min_cycle;Max_cycle;Signal;HPM_P1;HPM_P2
2021/08/19 00:01:04;;;;;;;2.00;1.80;;;18.40;99.90;;;;;;5003775;28;21006;-63
2021/08/19 00:03:29;;;;;;;3.53;1.87;;;18.50;99.90;;;;;;5004072;28;20494;-62
2021/08/19 00:05:55;;;;;;;3.10;1.80;;;18.50;99.90;;;;;;5002901;28;20448;-62
2021/08/19 00:08:20;;;;;;;4.57;2.70;;;18.50;99.90;;;;;;5005284;28;20216;-62
2021/08/19 00:10:49;;;;;;;2.43;1.90;;;18.50;99.90;;;;;;5006605;28;20186;-63
2021/08/19 00:13:15;;;;;;;2.60;2.40;;;18.50;99.90;;;;;;5003956;28;20189;-65
2021/08/19 00:15:41;;;;;;;2.87;2.00;;;18.50;99.90;;;;;;5005581;28;21388;-64
2021/08/19 00:18:07;;;;;;;2.50;2.07;;;18.40;99.90;;;;;;5003508;28;20249;-64
2021/08/19 00:20:32;;;;;;;2.10;1.90;;;18.50;99.90;;;;;;5001047;28;20455;-62
2021/08/19 00:23:01;;;;;;;2.40;2.20;;;18.40;99.90;;;;;;5020198;28;20221;-62
2021/08/19 00:25:29;;;;;;;2.93;2.00;;;18.50;99.90;;;;;;5000862;28;20212;-64
2021/08/19 00:28:00;;;;;;;2.60;2.13;;;18.40;99.90;;;;;;5001436;28;20756;-65
2021/08/19 00:30:26;;;;;;;3.10;2.30;;;18.50;99.90;;;;;;5004712;28;20515;-65
2021/08/19 00:32:52;;;;;;;3.00;2.37;;;18.50;99.90;;;;;;5005479;28;21086;-63
2021/08/19 00:35:24;;;;;;;2.53;2.33;;;18.40;99.90;;;;;;5006921;28;20447;-64
2021/08/19 00:37:49;;;;;;;2.33;2.13;;;18.40;99.90;;;;;;5003824;28;20679;-63
2021/08/19 00:40:15;;;;;;;2.97;1.90;;;18.40;99.90;;;;;;5003880;28;20477;-63
2021/08/19 00:42:42;;;;;;;2.53;2.03;;;18.40;99.90;;;;;;5011062;28;20205;-65
2021/08/19 00:45:09;;;;;;;2.93;2.47;;;18.40;99.90;;;;;;5006825;28;20637;-64
2021/08/19 00:47:38;;;;;;;2.30;1.90;;;18.40;99.90;;;;;;5005812;28;20494;-65
2021/08/19 00:50:05;;;;;;;2.90;2.40;;;18.50;99.90;;;;;;5009774;28;20542;-63
2021/08/19 00:52:32;;;;;;;3.13;2.83;;;18.40;99.90;;;;;;5005558;28;20440;-63
2021/08/19 00:55:02;;;;;;;2.67;2.47;;;18.40;99.90;;;;;;4998299;28;20444;-64
2021/08/19 00:57:27;;;;;;;3.93;2.40;;;18.40;99.90;;;;;;5006784;28;20479;-65
2021/08/19 00:59:55;;;;;;;3.10;2.23;;;18.30;99.90;;;;;;5003729;28;20499;-64
2021/08/19 01:02:21;;;;;;;3.40;3.07;;;18.30;99.90;;;;;;5006445;28;20280;-63
2021/08/19 01:05:07;;;;;;;2.73;2.53;;;18.30;99.90;;;;;;5003637;28;20451;-63
2021/08/19 01:07:33;;;;;;;4.43;2.93;;;18.30;99.90;;;;;;5019051;28;20224;-63
2021/08/19 01:10:03;;;;;;;3.10;2.67;;;18.30;99.90;;;;;;5004310;28;20832;-64
2021/08/19 01:12:32;;;;;;;3.00;2.70;;;18.30;99.90;;;;;;5017848;28;20193;-64
2021/08/19 01:15:01;;;;;;;2.70;2.50;;;18.30;99.90;;;;;;5001040;28;20938;-65
2021/08/19 01:17:30;;;;;;;3.93;2.63;;;18.20;99.90;;;;;;5006026;28;20443;-63
2021/08/19 01:19:55;;;;;;;3.87;3.33;;;18.20;99.90;;;;;;5001189;28;21001;-64
2021/08/19 01:22:26;;;;;;;3.40;2.83;;;18.20;99.90;;;;;;5005065;28;20526;-62
2021/08/19 01:24:53;;;;;;;3.17;2.83;;;18.30;99.90;;;;;;5017566;28;20204;-62
2021/08/19 01:27:20;;;;;;;3.97;3.00;;;18.30;99.90;;;;;;5002150;28;20823;-65
2021/08/19 01:29:54;;;;;;;2.80;2.60;;;18.20;99.90;;;;;;5001164;28;20475;-64
2021/08/19 01:32:23;;;;;;;3.33;2.53;;;18.20;99.90;;;;;;5006030;28;20451;-64
2021/08/19 01:34:52;;;;;;;3.17;2.80;;;18.20;99.90;;;;;;5006256;28;20436;-63
2021/08/19 01:37:18;;;;;;;3.00;2.53;;;18.30;99.90;;;;;;5008546;28;20432;-63
2021/08/19 01:39:44;;;;;;;2.50;2.30;;;18.30;99.90;;;;;;5007371;28;21033;-64
2021/08/19 01:42:22;;;;;;;3.10;2.73;;;18.30;99.90;;;;;;5010359;28;20205;-62
2021/08/19 01:44:49;;;;;;;4.37;2.40;;;18.30;99.90;;;;;;5006747;28;20674;-63
2021/08/19 01:47:16;;;;;;;5.30;2.70;;;18.30;99.90;;;;;;5006827;28;20538;-62
2021/08/19 01:49:42;;;;;;;3.40;2.80;;;18.30;99.90;;;;;;5008711;28;20463;-63
2021/08/19 01:52:10;;;;;;;2.80;2.60;;;18.30;99.90;;;;;;5010053;28;20451;-63
2021/08/19 01:54:35;;;;;;;2.70;2.37;;;18.30;99.90;;;;;;5005446;28;20185;-63
2021/08/19 01:57:01;;;;;;;3.57;3.27;;;18.20;99.90;;;;;;5006842;28;20440;-63
2021/08/19 01:59:36;;;;;;;3.40;2.60;;;18.20;99.90;;;;;;5010144;28;20205;-64
2021/08/19 02:02:02;;;;;;;2.73;2.53;;;18.20;99.90;;;;;;5009113;28;20194;-64
2021/08/19 02:04:29;;;;;;;2.73;2.53;;;18.30;99.90;;;;;;5006859;28;20443;-63
2021/08/19 02:07:01;;;;;;;3.03;2.43;;;18.30;99.90;;;;;;5008220;28;20213;-63
2021/08/19 02:09:27;;;;;;;3.17;2.87;;;18.30;99.90;;;;;;5005445;28;20522;-62
2021/08/19 02:11:53;;;;;;;3.30;3.00;;;18.30;99.90;;;;;;5008188;28;20428;-61
2021/08/19 02:14:18;;;;;;;3.80;3.50;;;18.30;99.90;;;;;;5007657;28;20280;-61
2021/08/19 02:16:44;;;;;;;4.07;2.73;;;18.30;99.90;;;;;;5004485;28;20226;-62
2021/08/19 02:19:10;;;;;;;3.50;3.20;;;18.30;99.90;;;;;;5010414;28;20635;-62
2021/08/19 02:21:36;;;;;;;3.17;2.87;;;18.30;99.90;;;;;;5009804;28;20299;-64
2021/08/19 02:24:05;;;;;;;3.50;2.93;;;18.30;99.90;;;;;;5006422;28;21146;-63
2021/08/19 02:26:36;;;;;;;3.70;3.07;;;18.30;99.90;;;;;;5024386;28;20578;-64
2021/08/19 02:29:02;;;;;;;5.27;3.70;;;18.30;99.90;;;;;;5005945;28;20483;-61
2021/08/19 02:31:28;;;;;;;4.03;2.90;;;18.30;99.90;;;;;;5007880;28;20425;-63
2021/08/19 02:33:55;;;;;;;4.60;3.00;;;18.30;99.90;;;;;;5007359;28;20662;-61
2021/08/19 02:36:20;;;;;;;4.00;2.90;;;18.30;99.90;;;;;;5003415;28;20240;-63
2021/08/19 02:38:46;;;;;;;3.10;2.80;;;18.20;99.90;;;;;;5004264;28;20954;-65
2021/08/19 02:41:18;;;;;;;3.50;3.20;;;18.20;99.90;;;;;;5010598;28;20256;-62
2021/08/19 02:43:43;;;;;;;3.20;2.90;;;18.30;99.90;;;;;;5005293;28;20200;-62
2021/08/19 02:46:12;;;;;;;3.60;3.30;;;18.20;99.90;;;;;;5010783;28;20444;-62
2021/08/19 02:48:42;;;;;;;4.30;3.60;;;18.20;99.90;;;;;;5006004;28;20213;-64
2021/08/19 02:51:08;;;;;;;3.57;3.27;;;18.30;99.90;;;;;;5020697;28;20435;-62
2021/08/19 02:53:33;;;;;;;3.37;3.07;;;18.40;99.90;;;;;;5008553;28;20435;-62
2021/08/19 02:55:59;;;;;;;3.47;2.90;;;18.40;99.90;;;;;;5006677;28;20810;-64
2021/08/19 02:58:25;;;;;;;3.53;2.90;;;18.40;99.90;;;;;;5020385;28;20201;-64
2021/08/19 03:00:51;;;;;;;5.40;3.17;;;18.30;99.90;;;;;;5007773;28;20522;-62
2021/08/19 03:03:16;;;;;;;4.50;3.23;;;18.30;99.90;;;;;;5006145;28;20376;-63
2021/08/19 03:05:51;;;;;;;3.00;2.73;;;18.40;99.90;;;;;;5005567;28;20189;-63
2021/08/19 03:08:16;;;;;;;3.70;3.07;;;18.40;99.90;;;;;;5009519;28;20263;-64
2021/08/19 03:10:57;;;;;;;3.40;3.10;;;18.30;99.90;;;;;;5004983;28;20483;-64
2021/08/19 03:13:22;;;;;;;3.53;3.07;;;18.20;99.90;;;;;;5022885;28;20943;-63
2021/08/19 03:15:51;;;;;;;3.80;3.40;;;18.20;99.90;;;;;;5008652;28;20432;-62
2021/08/19 03:18:17;;;;;;;4.23;3.17;;;18.20;99.90;;;;;;5001415;28;20263;-62
2021/08/19 03:20:43;;;;;;;3.73;3.33;;;18.20;99.90;;;;;;5005859;28;20444;-62
2021/08/19 03:23:34;;;;;;;3.50;2.83;;;18.20;99.90;;;;;;5009450;28;20188;-62
2021/08/19 03:26:00;;;;;;;2.90;2.70;;;18.20;99.90;;;;;;5004350;28;20456;-62
2021/08/19 03:28:25;;;;;;;3.20;2.90;;;18.20;99.90;;;;;;5004975;28;20470;-64
2021/08/19 03:30:53;;;;;;;4.83;3.37;;;18.20;99.90;;;;;;5006355;28;20467;-64
2021/08/19 03:33:22;;;;;;;5.90;2.80;;;18.20;99.90;;;;;;5005767;28;20190;-62
2021/08/19 03:35:48;;;;;;;3.10;2.80;;;18.10;99.90;;;;;;5006438;28;20439;-63
2021/08/19 03:38:14;;;;;;;3.63;2.97;;;18.10;99.90;;;;;;5003081;28;20444;-63
2021/08/19 03:40:41;;;;;;;3.27;2.97;;;18.10;99.90;;;;;;5003338;28;20674;-63
2021/08/19 03:43:06;;;;;;;2.90;2.70;;;18.20;99.90;;;;;;5008674;28;20185;-65
2021/08/19 03:45:32;;;;;;;3.63;3.33;;;18.20;99.90;;;;;;5002215;28;20881;-65
2021/08/19 03:47:58;;;;;;;3.00;2.63;;;18.20;99.90;;;;;;5006175;28;20209;-64
2021/08/19 03:50:35;;;;;;;3.77;2.93;;;18.20;99.90;;;;;;5007892;28;20220;-63
2021/08/19 03:53:01;;;;;;;4.20;2.70;;;18.20;99.90;;;;;;5004812;28;20272;-65
2021/08/19 03:55:26;;;;;;;4.20;3.00;;;18.20;99.90;;;;;;5004229;28;20504;-63
2021/08/19 03:57:52;;;;;;;3.43;3.13;;;18.20;99.90;;;;;;5004417;28;20217;-64
2021/08/19 04:00:20;;;;;;;3.70;2.50;;;18.20;99.90;;;;;;5005729;28;20250;-65
2021/08/19 04:02:47;;;;;;;3.33;2.60;;;18.20;99.90;;;;;;4987215;28;20679;-65
2021/08/19 04:05:34;;;;;;;3.07;2.77;;;18.20;99.90;;;;;;5007811;28;20441;-65
2021/08/19 04:08:04;;;;;;;3.33;2.63;;;18.30;99.90;;;;;;5017817;28;20529;-65
2021/08/19 04:10:29;;;;;;;4.10;2.80;;;18.20;99.90;;;;;;5016633;28;20849;-63
2021/08/19 04:12:58;;;;;;;3.47;3.00;;;18.30;99.90;;;;;;5004133;28;20701;-63
2021/08/19 04:15:24;;;;;;;6.30;2.53;;;18.30;99.90;;;;;;5017610;28;20243;-63
2021/08/19 04:17:52;;;;;;;3.80;2.70;;;18.30;99.90;;;;;;5008991;28;20435;-65
2021/08/19 04:20:19;;;;;;;3.10;2.80;;;18.20;99.90;;;;;;5018996;28;20272;-63
2021/08/19 04:22:48;;;;;;;3.73;3.20;;;18.20;99.90;;;;;;5005250;28;20444;-61
2021/08/19 04:25:17;;;;;;;2.87;2.63;;;18.30;99.90;;;;;;5005749;28;20478;-64
2021/08/19 04:27:52;;;;;;;2.87;2.67;;;18.30;99.90;;;;;;5019448;28;20842;-65
2021/08/19 04:30:18;;;;;;;6.07;2.83;;;18.30;99.90;;;;;;5008344;28;20542;-64
2021/08/19 04:32:43;;;;;;;3.00;2.70;;;18.20;99.90;;;;;;5006402;28;20978;-64
2021/08/19 04:35:18;;;;;;;2.90;2.70;;;18.30;99.90;;;;;;5007381;28;20189;-65
2021/08/19 04:37:44;;;;;;;3.93;2.80;;;18.30;99.90;;;;;;5001726;28;20192;-65
2021/08/19 04:40:10;;;;;;;3.10;2.80;;;18.20;99.90;;;;;;5006462;28;20838;-65
2021/08/19 04:42:35;;;;;;;4.10;2.60;;;18.30;99.90;;;;;;5004232;28;20189;-64
2021/08/19 04:45:01;;;;;;;3.33;3.03;;;18.30;99.90;;;;;;5004512;28;20435;-64
2021/08/19 04:47:27;;;;;;;3.30;2.70;;;18.30;99.90;;;;;;5005047;28;20232;-63
2021/08/19 04:49:52;;;;;;;3.40;2.50;;;18.20;99.90;;;;;;5003360;28;20620;-63
2021/08/19 04:52:21;;;;;;;3.03;2.73;;;18.30;99.90;;;;;;5003307;28;20197;-63
2021/08/19 04:54:47;;;;;;;4.13;2.40;;;18.30;99.90;;;;;;5007036;28;20195;-62
2021/08/19 04:57:12;;;;;;;3.93;2.80;;;18.30;99.90;;;;;;5002682;28;20542;-63
2021/08/19 04:59:43;;;;;;;2.70;2.50;;;18.40;99.90;;;;;;5004855;28;20228;-64
2021/08/19 05:02:09;;;;;;;3.30;2.90;;;18.40;99.90;;;;;;5005880;28;20181;-65
2021/08/19 05:04:35;;;;;;;3.40;2.90;;;18.40;99.90;;;;;;5004266;28;20516;-63
2021/08/19 05:07:00;;;;;;;2.80;2.57;;;18.40;99.90;;;;;;5004476;28;20271;-64
2021/08/19 05:09:26;;;;;;;3.47;3.17;;;18.40;99.90;;;;;;5008197;28;20252;-64
2021/08/19 05:11:51;;;;;;;4.23;3.07;;;18.30;99.90;;;;;;5008989;28;20201;-64
2021/08/19 05:14:17;;;;;;;3.93;3.37;;;18.30;99.90;;;;;;5011075;28;20211;-63
2021/08/19 05:16:43;;;;;;;3.23;2.93;;;18.30;99.90;;;;;;5009059;28;20319;-63
2021/08/19 05:19:09;;;;;;;3.37;2.53;;;18.30;99.90;;;;;;5006442;28;20272;-62
2021/08/19 05:21:34;;;;;;;4.73;2.80;;;18.30;99.90;;;;;;5010141;28;20783;-62
2021/08/19 05:24:09;;;;;;;3.27;2.97;;;18.30;99.90;;;;;;5007033;28;20181;-62
2021/08/19 05:26:35;;;;;;;3.33;3.03;;;18.30;99.90;;;;;;5005849;28;20212;-65
2021/08/19 05:29:00;;;;;;;3.03;2.53;;;18.30;99.90;;;;;;5008270;28;20502;-64
2021/08/19 05:31:29;;;;;;;3.20;2.90;;;18.40;99.90;;;;;;5007899;28;20650;-64
2021/08/19 05:33:55;;;;;;;3.70;3.30;;;18.40;99.90;;;;;;5007724;28;20252;-62
2021/08/19 05:36:21;;;;;;;4.03;3.13;;;18.40;99.90;;;;;;5007648;28;20910;-64
2021/08/19 05:38:47;;;;;;;3.50;3.00;;;18.40;99.90;;;;;;5006443;28;20574;-64
2021/08/19 05:41:18;;;;;;;3.47;2.80;;;18.50;99.90;;;;;;5011556;28;20521;-64
2021/08/19 05:43:45;;;;;;;3.23;2.93;;;18.60;99.90;;;;;;5008289;28;20694;-64
2021/08/19 05:46:11;;;;;;;4.17;2.87;;;18.60;99.90;;;;;;5004491;28;20462;-64
2021/08/19 05:48:36;;;;;;;3.10;2.90;;;18.60;99.90;;;;;;5022763;22;21045;-64
2021/08/19 05:51:03;;;;;;;3.80;3.30;;;18.70;99.90;;;;;;4987211;28;20192;-64
2021/08/19 05:53:34;;;;;;;3.00;2.70;;;18.70;99.90;;;;;;4991106;28;20567;-64
2021/08/19 05:56:00;;;;;;;3.17;2.50;;;18.70;99.90;;;;;;4995290;28;20436;-65
2021/08/19 05:58:25;;;;;;;7.60;2.97;;;18.60;99.90;;;;;;4989972;28;20502;-65
2021/08/19 06:00:51;;;;;;;5.00;2.80;;;18.60;99.90;;;;;;4995540;28;20191;-65
2021/08/19 06:03:19;;;;;;;3.77;2.63;;;18.70;99.90;;;;;;4986836;28;20280;-65
2021/08/19 06:05:45;;;;;;;3.40;3.03;;;18.70;99.90;;;;;;4985136;28;20189;-65
2021/08/19 06:08:11;;;;;;;3.10;2.70;;;18.70;99.90;;;;;;4991911;28;20724;-65
2021/08/19 06:10:39;;;;;;;3.27;2.73;;;18.70;99.90;;;;;;4989971;28;20185;-65
2021/08/19 06:13:04;;;;;;;7.93;3.23;;;18.60;99.90;;;;;;4990104;28;20235;-64
2021/08/19 06:15:30;;;;;;;2.67;2.47;;;18.50;99.90;;;;;;4978060;28;20440;-64
2021/08/19 06:17:57;;;;;;;3.77;2.87;;;18.60;99.90;;;;;;4985355;28;20730;-64
2021/08/19 06:20:22;;;;;;;3.23;2.50;;;18.60;99.90;;;;;;4996991;28;20445;-63
2021/08/19 06:22:51;;;;;;;5.30;3.70;;;18.60;99.90;;;;;;4998000;28;20448;-64
2021/08/19 06:25:42;;;;;;;2.80;2.50;;;18.60;99.90;;;;;;4976246;28;20249;-63
2021/08/19 06:28:09;;;;;;;2.87;2.60;;;18.60;99.90;;;;;;4979256;28;20907;-63
2021/08/19 06:30:35;;;;;;;3.20;2.90;;;18.60;99.90;;;;;;4986547;28;20432;-64
2021/08/19 06:33:02;;;;;;;4.00;2.87;;;18.70;99.90;;;;;;4991862;28;20436;-62
2021/08/19 06:35:29;;;;;;;2.87;2.60;;;18.60;99.90;;;;;;4996054;28;21122;-62
2021/08/19 06:37:55;;;;;;;3.03;2.70;;;18.60;99.90;;;;;;4992569;28;20968;-63
2021/08/19 06:40:22;;;;;;;6.60;3.80;;;18.60;99.90;;;;;;4985602;28;20467;-63
2021/08/19 06:42:48;;;;;;;4.60;3.70;;;18.60;99.90;;;;;;4994196;28;20439;-62
2021/08/19 06:45:15;;;;;;;4.83;3.40;;;18.50;99.90;;;;;;4974611;28;20437;-62
2021/08/19 06:47:44;;;;;;;4.00;3.40;;;18.50;99.90;;;;;;4986366;28;20214;-63
2021/08/19 06:50:11;;;;;;;4.70;3.57;;;18.50;99.90;;;;;;4991511;28;20466;-63
2021/08/19 06:52:45;;;;;;;5.13;3.40;;;18.50;99.90;;;;;;4987351;28;20443;-63
2021/08/19 06:55:12;;;;;;;5.37;3.57;;;18.50;99.90;;;;;;4991448;28;20498;-63
2021/08/19 06:57:40;;;;;;;6.30;4.47;;;18.50;99.90;;;;;;4971033;28;20537;-63
2021/08/19 07:00:11;;;;;;;5.40;4.70;;;18.50;99.90;;;;;;4986435;28;20506;-62
2021/08/19 07:02:37;;;;;;;4.47;4.07;;;18.50;99.90;;;;;;4990833;28;20436;-64
2021/08/19 07:05:05;;;;;;;4.10;3.70;;;18.50;99.90;;;;;;4989798;28;20587;-63
2021/08/19 07:07:31;;;;;;;4.00;3.47;;;18.50;99.90;;;;;;4981230;28;20527;-62
2021/08/19 07:09:59;;;;;;;5.13;3.73;;;18.60;99.90;;;;;;4970971;28;20951;-62
2021/08/19 07:12:26;;;;;;;4.27;3.27;;;18.70;99.90;;;;;;4988224;28;20602;-63
2021/08/19 07:14:52;;;;;;;5.17;4.13;;;18.70;99.90;;;;;;4997373;28;21117;-63
2021/08/19 07:17:17;;;;;;;3.77;3.23;;;18.80;99.90;;;;;;4992609;28;20595;-65
2021/08/19 07:19:43;;;;;;;4.70;3.30;;;18.80;99.90;;;;;;4995046;28;20308;-63
2021/08/19 07:22:09;;;;;;;3.50;3.03;;;18.80;99.90;;;;;;4992324;28;20193;-63
2021/08/19 07:24:34;;;;;;;5.33;3.83;;;18.80;99.90;;;;;;4987976;28;20209;-61
2021/08/19 07:27:00;;;;;;;3.53;3.00;;;18.80;99.90;;;;;;4996848;28;20210;-62
2021/08/19 07:29:26;;;;;;;3.80;3.40;;;18.90;99.90;;;;;;4997788;28;20232;-63
2021/08/19 07:31:54;;;;;;;5.40;3.53;;;18.90;99.90;;;;;;4976295;28;20656;-63
2021/08/19 07:34:20;;;;;;;3.50;3.20;;;18.90;99.90;;;;;;4997627;28;21208;-63
2021/08/19 07:36:46;;;;;;;4.37;3.17;;;18.90;99.90;;;;;;4980357;28;20433;-64
2021/08/19 07:39:12;;;;;;;5.53;5.03;;;18.90;99.90;;;;;;4995763;28;20460;-64
2021/08/19 07:41:37;;;;;;;3.60;2.77;;;18.90;99.90;;;;;;4999070;28;20276;-64
2021/08/19 07:44:04;;;;;;;5.30;3.43;;;19.00;99.90;;;;;;4993023;28;20281;-62
2021/08/19 07:46:33;;;;;;;4.13;3.20;;;19.00;99.90;;;;;;5006363;28;20220;-63
2021/08/19 07:49:01;;;;;;;4.77;3.43;;;19.10;99.90;;;;;;4996479;28;20455;-63
2021/08/19 07:51:27;;;;;;;5.40;3.63;;;19.20;99.90;;;;;;4986657;28;20443;-64
2021/08/19 07:53:53;;;;;;;4.27;3.17;;;19.20;99.90;;;;;;4997193;28;20437;-63
2021/08/19 07:56:19;;;;;;;5.63;4.13;;;19.20;99.90;;;;;;4994242;28;20660;-64
2021/08/19 07:58:45;;;;;;;3.60;3.20;;;19.20;99.90;;;;;;4992041;28;20444;-62
2021/08/19 08:01:11;;;;;;;6.03;3.00;;;19.30;99.90;;;;;;4998939;28;20185;-62
2021/08/19 08:03:37;;;;;;;4.13;3.40;;;19.40;99.90;;;;;;4996098;28;20230;-62
2021/08/19 08:06:03;;;;;;;3.33;3.03;;;19.50;99.90;;;;;;4999483;28;20440;-64
2021/08/19 08:08:30;;;;;;;6.20;3.53;;;19.60;99.90;;;;;;4997957;28;20488;-64
2021/08/19 08:10:56;;;;;;;4.67;3.03;;;19.70;99.90;;;;;;4973325;28;20476;-63
2021/08/19 08:13:24;;;;;;;3.33;2.90;;;19.80;99.90;;;;;;4990711;28;20293;-65
2021/08/19 08:15:50;;;;;;;5.50;3.73;;;19.70;99.90;;;;;;4994311;28;20276;-63
2021/08/19 08:18:18;;;;;;;4.27;3.10;;;19.80;99.90;;;;;;4988333;28;20543;-63
2021/08/19 08:20:45;;;;;;;8.67;2.83;;;19.80;99.90;;;;;;4990979;28;20438;-63
2021/08/19 08:23:11;;;;;;;5.40;3.50;;;19.90;99.90;;;;;;4998710;28;20875;-65
2021/08/19 08:25:38;;;;;;;8.27;2.73;;;20.00;99.90;;;;;;4976123;28;20441;-64
2021/08/19 08:28:26;;;;;;;3.50;2.80;;;20.10;99.90;;;;;;4998995;28;20878;-64
2021/08/19 08:30:51;;;;;;;3.20;2.90;;;20.10;99.90;;;;;;4996816;28;20432;-62
2021/08/19 08:33:18;;;;;;;6.50;3.03;;;20.10;99.90;;;;;;4990147;28;20441;-62
2021/08/19 08:35:44;;;;;;;4.23;2.77;;;20.00;99.90;;;;;;4972614;28;20191;-62
2021/08/19 08:38:14;;;;;;;3.10;2.80;;;20.10;99.90;;;;;;4992994;28;20452;-62
2021/08/19 08:40:42;;;;;;;3.00;2.70;;;20.10;99.90;;;;;;4978425;28;20480;-65
2021/08/19 08:43:09;;;;;;;3.03;2.70;;;20.00;99.90;;;;;;4992858;28;20488;-65
2021/08/19 08:45:36;;;;;;;3.20;2.90;;;20.20;99.90;;;;;;4990233;28;20463;-65
2021/08/19 08:48:04;;;;;;;5.10;3.00;;;20.20;99.90;;;;;;4996264;28;20571;-63
2021/08/19 08:50:32;;;;;;;3.20;2.73;;;20.10;99.90;;;;;;4971360;28;20963;-62
2021/08/19 08:52:58;;;;;;;4.70;3.40;;;20.20;99.90;;;;;;4995831;28;20796;-62
2021/08/19 08:55:25;;;;;;;3.33;2.60;;;20.10;99.90;;;;;;4992777;28;20491;-63
2021/08/19 08:57:52;;;;;;;3.87;3.10;;;20.20;99.90;;;;;;4994272;28;20419;-63
2021/08/19 09:00:19;;;;;;;3.93;3.40;;;20.30;99.90;;;;;;4993179;28;20477;-63
2021/08/19 09:02:45;;;;;;;3.53;3.23;;;20.40;99.90;;;;;;4996051;28;20469;-63
2021/08/19 09:05:16;;;;;;;4.00;3.60;;;20.40;99.90;;;;;;4977350;28;20476;-62
2021/08/19 09:07:43;;;;;;;3.20;2.90;;;20.50;99.90;;;;;;4993844;28;20226;-62
2021/08/19 09:10:10;;;;;;;3.57;2.67;;;20.60;99.90;;;;;;4994428;28;20459;-64
2021/08/19 09:12:45;;;;;;;5.90;3.17;;;20.70;99.90;;;;;;4989848;28;20440;-63
2021/08/19 09:15:13;;;;;;;4.43;3.10;;;20.70;99.90;;;;;;4974826;28;20428;-64
2021/08/19 09:17:51;;;;;;;2.97;2.67;;;20.60;99.90;;;;;;4984680;28;20487;-63
2021/08/19 09:20:19;;;;;;;3.20;2.83;;;20.80;99.90;;;;;;4975231;28;20630;-61
2021/08/19 09:23:01;;;;;;;4.53;3.10;;;20.80;99.90;;;;;;4993691;28;20440;-63
2021/08/19 09:25:32;;;;;;;2.90;2.60;;;20.70;99.90;;;;;;4996677;28;20447;-63
2021/08/19 09:28:31;;;;;;;9.67;2.90;;;20.80;99.90;;;;;;4974087;28;20974;-63
2021/08/19 09:31:07;;;;;;;3.40;2.90;;;20.80;99.90;;;;;;4965801;28;20454;-64
2021/08/19 09:33:43;;;;;;;3.10;2.80;;;20.70;99.90;;;;;;4998065;28;20395;-62
2021/08/19 09:36:12;;;;;;;4.10;2.67;;;20.80;99.90;;;;;;4977546;28;20441;-62
2021/08/19 09:38:44;;;;;;;3.20;2.90;;;20.90;99.90;;;;;;4988662;28;20507;-63
2021/08/19 09:41:18;;;;;;;3.30;3.00;;;20.80;99.90;;;;;;4991916;28;20448;-63
2021/08/19 09:43:51;;;;;;;3.30;3.00;;;20.80;99.90;;;;;;4972969;28;20443;-63
2021/08/19 09:46:32;;;;;;;4.20;3.57;;;21.00;99.90;;;;;;4984396;28;20971;-63
2021/08/19 09:49:29;;;;;;;4.63;2.70;;;21.10;99.90;;;;;;4989122;28;20456;-63
2021/08/19 09:52:13;;;;;;;4.70;3.10;;;21.20;99.90;;;;;;4996834;28;20908;-64
2021/08/19 09:54:41;;;;;;;3.20;2.80;;;21.30;99.90;;;;;;4988082;28;20519;-64
2021/08/19 09:57:08;;;;;;;3.43;3.00;;;21.10;99.90;;;;;;4999935;28;20806;-64
2021/08/19 09:59:36;;;;;;;3.07;2.80;;;21.10;99.90;;;;;;4992115;28;20455;-64
2021/08/19 10:02:04;;;;;;;3.70;2.83;;;21.10;99.90;;;;;;4991591;28;20502;-64
2021/08/19 10:04:29;;;;;;;3.00;2.70;;;21.30;99.90;;;;;;4992055;28;20915;-64
2021/08/19 10:06:56;;;;;;;5.80;2.90;;;21.50;99.90;;;;;;4997237;28;20460;-64
2021/08/19 10:09:23;;;;;;;4.80;2.93;;;21.40;99.90;;;;;;4990532;28;20201;-64
2021/08/19 10:11:54;;;;;;;3.20;2.90;;;21.50;99.90;;;;;;4996694;28;20441;-64
2021/08/19 10:14:34;;;;;;;3.30;3.00;;;21.50;99.90;;;;;;4978703;28;20432;-64
2021/08/19 10:16:59;;;;;;;2.77;2.57;;;21.50;99.90;;;;;;4993868;28;20536;-65
2021/08/19 10:19:28;;;;;;;3.20;2.93;;;21.60;99.90;;;;;;5000935;28;20958;-64
2021/08/19 10:22:08;;;;;;;4.90;3.03;;;21.80;99.90;;;;;;4992199;28;20560;-64
2021/08/19 10:24:36;;;;;;;3.30;2.83;;;21.80;99.90;;;;;;4992170;28;20464;-64
2021/08/19 10:27:22;;;;;;;3.73;3.40;;;21.90;99.90;;;;;;5001432;28;20485;-64
2021/08/19 10:29:51;;;;;;;3.77;3.20;;;21.90;99.90;;;;;;4990459;28;20454;-64
2021/08/19 10:32:31;;;;;;;3.57;2.90;;;22.00;99.90;;;;;;4995648;28;20456;-65
2021/08/19 10:35:10;;;;;;;2.83;2.63;;;22.10;99.90;;;;;;4995090;28;20474;-64
2021/08/19 10:37:44;;;;;;;3.37;2.63;;;22.00;99.90;;;;;;4996557;28;20438;-62
2021/08/19 10:40:19;;;;;;;2.83;2.53;;;22.00;99.90;;;;;;4991766;28;20451;-62
2021/08/19 10:42:48;;;;;;;2.97;2.67;;;21.90;99.90;;;;;;4994109;28;20437;-62
2021/08/19 10:45:26;;;;;;;5.67;2.80;;;22.00;99.90;;;;;;4971952;28;20434;-62
2021/08/19 10:47:55;;;;;;;3.07;2.70;;;22.10;99.90;;;;;;4990454;28;20460;-64
2021/08/19 10:50:33;;;;;;;2.60;2.30;;;22.30;99.90;;;;;;4992750;28;20480;-64
2021/08/19 10:53:21;;;;;;;2.80;2.50;;;22.50;99.90;;;;;;4997978;28;20436;-65
2021/08/19 10:55:48;;;;;;;3.67;2.70;;;22.50;99.90;;;;;;4971441;28;20446;-65
2021/08/19 10:58:26;;;;;;;2.30;2.10;;;22.50;99.90;;;;;;4990435;28;20446;-65
2021/08/19 11:00:54;;;;;;;2.70;2.50;;;22.80;99.90;;;;;;4998741;28;20444;-63
2021/08/19 11:03:36;;;;;;;2.50;2.20;;;22.70;99.90;;;;;;4973611;28;20936;-63
2021/08/19 11:06:34;;;;;;;3.23;2.97;;;22.90;99.90;;;;;;4988481;28;20424;-63
2021/08/19 11:09:12;;;;;;;3.33;2.70;;;22.80;99.90;;;;;;4984588;28;20487;-65
2021/08/19 11:11:38;;;;;;;3.33;2.60;;;22.80;99.90;;;;;;4989849;28;20443;-65
2021/08/19 11:14:17;;;;;;;3.40;3.10;;;22.60;99.90;;;;;;4991308;28;20943;-65
2021/08/19 11:16:57;;;;;;;2.83;2.53;;;22.70;99.90;;;;;;4993230;28;20437;-65
2021/08/19 11:19:25;;;;;;;2.70;2.30;;;22.70;99.90;;;;;;4991301;28;20448;-64
2021/08/19 11:22:00;;;;;;;3.00;2.20;;;22.60;99.90;;;;;;4992646;28;20461;-64
2021/08/19 11:24:31;;;;;;;2.90;2.33;;;22.80;99.90;;;;;;4993352;28;20447;-64
2021/08/19 11:27:09;;;;;;;2.80;2.43;;;23.00;99.90;;;;;;4990794;28;20464;-65
2021/08/19 11:29:36;;;;;;;2.30;2.10;;;23.10;99.90;;;;;;4985514;28;20457;-64
2021/08/19 11:32:23;;;;;;;2.70;2.47;;;23.30;99.90;;;;;;4997328;28;20423;-64
2021/08/19 11:34:54;;;;;;;3.47;2.43;;;23.30;99.90;;;;;;4989185;28;20444;-65
2021/08/19 11:37:33;;;;;;;3.83;2.70;;;23.40;99.90;;;;;;4979750;28;20447;-65
2021/08/19 11:40:03;;;;;;;2.47;2.27;;;23.70;99.90;;;;;;4984661;28;20459;-66
2021/08/19 11:42:33;;;;;;;5.20;2.80;;;23.80;99.90;;;;;;4989768;28;20442;-65
2021/08/19 11:45:26;;;;;;;2.73;2.43;;;24.00;99.90;;;;;;4990833;28;20475;-65
2021/08/19 11:47:52;;;;;;;3.40;2.67;;;24.10;99.90;;;;;;4988549;28;20507;-63
2021/08/19 11:50:27;;;;;;;4.63;2.87;;;24.10;99.90;;;;;;4987966;28;20459;-63
2021/08/19 11:53:01;;;;;;;2.40;2.20;;;24.40;99.90;;;;;;4978156;28;20482;-64
2021/08/19 11:55:29;;;;;;;4.43;3.33;;;24.50;99.90;;;;;;4974274;28;20931;-66
2021/08/19 11:58:16;;;;;;;3.43;2.40;;;24.10;99.90;;;;;;4970817;28;20432;-65
2021/08/19 12:01:06;;;;;;;2.53;2.27;;;23.90;99.90;;;;;;4988546;28;20431;-65
2021/08/19 12:03:34;;;;;;;2.70;2.50;;;23.70;99.90;;;;;;4981286;28;20915;-65
2021/08/19 12:06:04;;;;;;;2.03;1.87;;;23.60;99.90;;;;;;4975166;28;20437;-65
2021/08/19 12:08:38;;;;;;;2.40;1.90;;;24.10;99.90;;;;;;4990302;28;20554;-65
2021/08/19 12:11:06;;;;;;;2.07;1.90;;;24.30;99.90;;;;;;4986156;28;20479;-64
2021/08/19 12:13:34;;;;;;;2.40;2.20;;;24.40;99.90;;;;;;4990069;28;20509;-64
2021/08/19 12:16:00;;;;;;;2.50;2.30;;;24.70;99.90;;;;;;4982550;28;20435;-66
2021/08/19 12:18:27;;;;;;;2.13;1.93;;;25.20;99.90;;;;;;4996773;28;20468;-65
2021/08/19 12:21:20;;;;;;;2.40;1.90;;;26.20;99.90;;;;;;4997507;28;20448;-64
2021/08/19 12:23:47;;;;;;;1.90;1.70;;;26.30;99.90;;;;;;4994969;28;20436;-65
2021/08/19 12:26:16;;;;;;;2.83;2.07;;;26.10;99.90;;;;;;4974601;28;20429;-64
2021/08/19 12:28:58;;;;;;;2.17;1.97;;;26.40;99.90;;;;;;4998958;28;20470;-65
2021/08/19 12:31:46;;;;;;;2.20;1.90;;;26.90;99.90;;;;;;4955222;28;20440;-66
2021/08/19 12:34:12;;;;;;;2.50;2.30;;;27.40;99.90;;;;;;4970008;28;20421;-64
2021/08/19 12:36:38;;;;;;;2.53;2.33;;;27.50;99.90;;;;;;5001241;28;20427;-65
2021/08/19 12:39:22;;;;;;;2.40;2.03;;;27.30;99.90;;;;;;4986910;28;20744;-65
2021/08/19 12:41:50;;;;;;;2.17;2.03;;;27.80;99.90;;;;;;4975847;28;20535;-64
2021/08/19 12:44:36;;;;;;;2.00;1.90;;;28.00;99.90;;;;;;4984840;28;20994;-64
2021/08/19 12:47:02;;;;;;;3.90;2.40;;;28.10;99.90;;;;;;4992619;28;20461;-66
2021/08/19 12:49:30;;;;;;;2.07;1.87;;;28.30;99.90;;;;;;4995752;28;20476;-65
2021/08/19 12:52:24;;;;;;;2.23;2.03;;;28.40;99.90;;;;;;4998164;28;20969;-64
2021/08/19 12:54:57;;;;;;;2.20;2.00;;;27.90;99.90;;;;;;4995063;28;20413;-64
2021/08/19 12:57:41;;;;;;;2.30;2.10;;;27.30;99.90;;;;;;4984781;28;20432;-64
2021/08/19 13:00:13;;;;;;;3.00;2.10;;;27.00;99.90;;;;;;4995334;28;20456;-65